Boulder, WY

1:31 PM MDT on October 01, 2014 (GMT -0600)
Wenz | Change Station
CLOSE
Current Station
Airport
Location: Pinedale,
Elevation: 7087 ft
Nearby Weather Stations

Elev 7087 ft 42.80 °N, 109.81 °W | Updated 16 minutes ago

Rain
Rain
39 °F
Feels Like 30 °F
N
20
Wind Variable Wind from WNW
Gusts 26 mph

Today
High -- | Low -- °F
--% Chance of Precip.
Yesterday
High -- | Low -- °F
Precip. -- in
7:16 AM 6:59 PM
Waxing Crescent, 50% visible
Pressure 30.03 in
Visibility 10.0 miles
Clouds Scattered Clouds 3000 ft
Scattered Clouds 4600 ft
Overcast 6000 ft
Windchill 30 °F
Dew Point 32 °F
Humidity 75%
Rainfall 0.00 in
Snow Depth 0 in , 0 in , 1 in
UV 2 out of 12
Pollen 1.80 out of 12
Air Quality Not available.
Flu Activity Not available.
METAR KPNA 011915Z AUTO 29017G23KT 10SM SCT030 SCT046 OVC060 04/00 A3003 RMK AO2

More Conditions Fewer Conditions

Pressure 30.03 in
Visibility 10.0 miles
Clouds Scattered Clouds 3000 ft
Scattered Clouds 4600 ft
Overcast 6000 ft
Windchill 30 °F
Dew Point 32 °F
Humidity 75%
Rainfall 0.00 in
Snow Depth 0 in , 0 in , 1 in
UV 2 out of 12
Pollen 1.80 out of 12
Air Quality Not available.
Flu Activity Not available.
METAR KPNA 011915Z AUTO 29017G23KT 10SM SCT030 SCT046 OVC060 04/00 A3003 RMK AO2

More Conditions Fewer Conditions

10-Day Weather Forecast

Almanac

Astronomy

Oct. 01, 2014 Rise Set
Actual Time 7:16 AM MDT 6:59 PM MDT
Civil Twilight 6:47 AM MDT 7:28 PM MDT
Nautical Twilight 6:15 AM MDT 8:00 PM MDT
Astronomical Twilight 5:41 AM MDT 8:33 PM MDT
Moon 2:25 PM MDT No Moon Set
Length of Visible Light 12h 40m
Length of Day
11h 43m
Tomorrow will be 2m 53s shorter.
Waxing Crescent, 50% of the Moon is Illuminated
Today
Waxing Crescent
Oct 1
First Quarter
Oct 8
Full
Oct 15
Last Quarter
Oct 23
New

Today's Extremes

State Highs State Lows

Community

WunderPhotos

Upload Photos

1,758,012 photos uploaded!

WunderBlogs® & News

By Dr. Jeff Masters
Director of Meteorology, Weather Underground
By Kari Strenfel
Meteorologist, Weather Underground
By Christopher C. Burt
Weather Historian, Weather Underground
October 1, 2014
October 1, 2014
October 1, 2014

Nearby

Snow Depth

Station Depth Elevation
Snider Basin 0 in 8060 ft
Whiskey Park 0 in 8950 ft
North French Creek 1 in 10130 ft
Two Ocean Plateau 4 in 9240 ft
Lewis Lake Divide 1 in 7850 ft

Earthquake Activity

City Distance Mag. Time & Date
No recent earthquake activity has been reported nearby.
Minimum magnitude displayed is 2.5.

Coastal Water Temperatures

Place Temperature
No Stations Reporting

Nearby Weather Stations